sensor_id;sensor_type;location;lat;lon;timestamp;temperature;humidity
22469;DHT22;11401;50.792;4.352;2023-09-19T00:00:44;21.80;63.20
22469;DHT22;11401;50.792;4.352;2023-09-19T00:03:14;21.70;63.20
22469;DHT22;11401;50.792;4.352;2023-09-19T00:05:42;21.70;63.00
22469;DHT22;11401;50.792;4.352;2023-09-19T00:08:13;21.70;63.00
22469;DHT22;11401;50.792;4.352;2023-09-19T00:10:41;21.70;63.00
22469;DHT22;11401;50.792;4.352;2023-09-19T00:13:09;21.60;63.00
22469;DHT22;11401;50.792;4.352;2023-09-19T00:15:46;21.60;62.80
22469;DHT22;11401;50.792;4.352;2023-09-19T00:18:18;21.60;63.00
22469;DHT22;11401;50.792;4.352;2023-09-19T00:20:49;21.70;63.20
22469;DHT22;11401;50.792;4.352;2023-09-19T00:23:18;21.70;62.80
22469;DHT22;11401;50.792;4.352;2023-09-19T00:25:46;21.60;62.90
22469;DHT22;11401;50.792;4.352;2023-09-19T00:28:13;21.60;63.00
22469;DHT22;11401;50.792;4.352;2023-09-19T00:30:44;21.60;62.80
22469;DHT22;11401;50.792;4.352;2023-09-19T00:33:11;21.60;62.90
22469;DHT22;11401;50.792;4.352;2023-09-19T00:35:53;21.60;62.90
22469;DHT22;11401;50.792;4.352;2023-09-19T00:38:22;21.50;62.20
22469;DHT22;11401;50.792;4.352;2023-09-19T00:40:51;21.60;63.30
22469;DHT22;11401;50.792;4.352;2023-09-19T00:43:18;21.50;62.30
22469;DHT22;11401;50.792;4.352;2023-09-19T00:45:49;21.60;62.40
22469;DHT22;11401;50.792;4.352;2023-09-19T00:48:19;21.60;62.40
22469;DHT22;11401;50.792;4.352;2023-09-19T00:50:48;21.60;62.20
22469;DHT22;11401;50.792;4.352;2023-09-19T00:53:18;21.60;63.00
22469;DHT22;11401;50.792;4.352;2023-09-19T00:55:47;21.50;61.60
22469;DHT22;11401;50.792;4.352;2023-09-19T00:58:16;21.50;61.90
22469;DHT22;11401;50.792;4.352;2023-09-19T01:00:45;21.50;61.40
22469;DHT22;11401;50.792;4.352;2023-09-19T01:03:13;21.50;61.40
22469;DHT22;11401;50.792;4.352;2023-09-19T01:05:40;21.50;61.60
22469;DHT22;11401;50.792;4.352;2023-09-19T01:08:09;21.40;61.50
22469;DHT22;11401;50.792;4.352;2023-09-19T01:10:46;21.50;61.60
22469;DHT22;11401;50.792;4.352;2023-09-19T01:16:11;21.50;61.60
22469;DHT22;11401;50.792;4.352;2023-09-19T01:19:06;21.50;61.70
22469;DHT22;11401;50.792;4.352;2023-09-19T01:22:00;21.50;61.90
22469;DHT22;11401;50.792;4.352;2023-09-19T01:27:29;21.40;61.50
22469;DHT22;11401;50.792;4.352;2023-09-19T01:30:11;21.40;61.80
22469;DHT22;11401;50.792;4.352;2023-09-19T01:32:39;21.40;61.30
22469;DHT22;11401;50.792;4.352;2023-09-19T01:35:08;21.40;61.70
22469;DHT22;11401;50.792;4.352;2023-09-19T01:37:39;21.30;61.80
22469;DHT22;11401;50.792;4.352;2023-09-19T01:40:14;21.30;61.60
22469;DHT22;11401;50.792;4.352;2023-09-19T01:43:08;21.30;61.30
22469;DHT22;11401;50.792;4.352;2023-09-19T01:45:51;21.30;61.30
22469;DHT22;11401;50.792;4.352;2023-09-19T01:51:11;21.30;61.30
22469;DHT22;11401;50.792;4.352;2023-09-19T01:53:53;21.30;60.90
22469;DHT22;11401;50.792;4.352;2023-09-19T01:59:24;21.30;61.30
22469;DHT22;11401;50.792;4.352;2023-09-19T02:01:52;21.30;61.30
22469;DHT22;11401;50.792;4.352;2023-09-19T02:04:20;21.20;61.00
22469;DHT22;11401;50.792;4.352;2023-09-19T02:06:47;21.20;60.80
22469;DHT22;11401;50.792;4.352;2023-09-19T02:09:15;21.30;60.60
22469;DHT22;11401;50.792;4.352;2023-09-19T02:11:42;21.20;60.30
22469;DHT22;11401;50.792;4.352;2023-09-19T02:14:09;21.20;60.30
22469;DHT22;11401;50.792;4.352;2023-09-19T02:16:36;21.20;60.30
22469;DHT22;11401;50.792;4.352;2023-09-19T02:19:04;21.20;60.30
22469;DHT22;11401;50.792;4.352;2023-09-19T02:21:32;21.20;60.10
22469;DHT22;11401;50.792;4.352;2023-09-19T02:24:00;21.20;59.90
22469;DHT22;11401;50.792;4.352;2023-09-19T02:26:27;21.20;59.40
22469;DHT22;11401;50.792;4.352;2023-09-19T02:28:55;21.20;60.00
22469;DHT22;11401;50.792;4.352;2023-09-19T02:31:23;21.20;59.70
22469;DHT22;11401;50.792;4.352;2023-09-19T02:33:50;21.10;59.80
22469;DHT22;11401;50.792;4.352;2023-09-19T02:36:17;21.20;60.20
22469;DHT22;11401;50.792;4.352;2023-09-19T02:38:44;21.20;59.40
22469;DHT22;11401;50.792;4.352;2023-09-19T02:41:11;21.20;59.60
22469;DHT22;11401;50.792;4.352;2023-09-19T02:43:38;21.20;60.10
22469;DHT22;11401;50.792;4.352;2023-09-19T02:46:06;21.20;60.10
22469;DHT22;11401;50.792;4.352;2023-09-19T02:48:33;21.20;60.50
22469;DHT22;11401;50.792;4.352;2023-09-19T02:51:02;21.20;59.50
22469;DHT22;11401;50.792;4.352;2023-09-19T02:53:32;21.20;59.50
22469;DHT22;11401;50.792;4.352;2023-09-19T02:55:59;21.20;60.50
22469;DHT22;11401;50.792;4.352;2023-09-19T02:58:26;21.20;59.80
22469;DHT22;11401;50.792;4.352;2023-09-19T03:00:54;21.20;60.10
22469;DHT22;11401;50.792;4.352;2023-09-19T03:03:23;21.20;60.50
22469;DHT22;11401;50.792;4.352;2023-09-19T03:05:51;21.20;59.60
22469;DHT22;11401;50.792;4.352;2023-09-19T03:08:22;21.20;60.40
22469;DHT22;11401;50.792;4.352;2023-09-19T03:10:49;21.20;60.70
22469;DHT22;11401;50.792;4.352;2023-09-19T03:13:16;21.20;60.30
22469;DHT22;11401;50.792;4.352;2023-09-19T03:15:44;21.20;60.70
22469;DHT22;11401;50.792;4.352;2023-09-19T03:18:15;21.20;60.70
22469;DHT22;11401;50.792;4.352;2023-09-19T03:20:42;21.10;61.00
22469;DHT22;11401;50.792;4.352;2023-09-19T03:23:09;21.10;61.70
22469;DHT22;11401;50.792;4.352;2023-09-19T03:25:37;21.10;61.50
22469;DHT22;11401;50.792;4.352;2023-09-19T03:28:04;21.10;61.10
22469;DHT22;11401;50.792;4.352;2023-09-19T03:30:35;21.10;60.90
22469;DHT22;11401;50.792;4.352;2023-09-19T03:33:04;21.10;61.30
22469;DHT22;11401;50.792;4.352;2023-09-19T03:35:33;21.10;61.40
22469;DHT22;11401;50.792;4.352;2023-09-19T03:38:01;21.10;61.40
22469;DHT22;11401;50.792;4.352;2023-09-19T03:40:30;21.10;61.60
22469;DHT22;11401;50.792;4.352;2023-09-19T03:43:00;21.10;61.40
22469;DHT22;11401;50.792;4.352;2023-09-19T03:45:29;21.10;60.90
22469;DHT22;11401;50.792;4.352;2023-09-19T03:47:56;21.00;61.90
22469;DHT22;11401;50.792;4.352;2023-09-19T03:50:24;21.00;61.40
22469;DHT22;11401;50.792;4.352;2023-09-19T03:52:56;21.00;61.50
22469;DHT22;11401;50.792;4.352;2023-09-19T03:55:24;21.00;61.30
22469;DHT22;11401;50.792;4.352;2023-09-19T03:57:51;21.00;61.30
22469;DHT22;11401;50.792;4.352;2023-09-19T04:00:19;21.00;61.30
22469;DHT22;11401;50.792;4.352;2023-09-19T04:02:48;21.00;61.80
22469;DHT22;11401;50.792;4.352;2023-09-19T04:05:16;21.00;61.80
22469;DHT22;11401;50.792;4.352;2023-09-19T04:07:44;21.00;61.50
22469;DHT22;11401;50.792;4.352;2023-09-19T04:10:12;21.00;62.00
22469;DHT22;11401;50.792;4.352;2023-09-19T04:12:40;21.00;61.70
22469;DHT22;11401;50.792;4.352;2023-09-19T04:15:07;21.00;62.20
22469;DHT22;11401;50.792;4.352;2023-09-19T04:17:35;21.00;62.20
22469;DHT22;11401;50.792;4.352;2023-09-19T04:20:03;21.00;62.00
22469;DHT22;11401;50.792;4.352;2023-09-19T04:22:34;20.90;62.40
22469;DHT22;11401;50.792;4.352;2023-09-19T04:25:01;21.00;61.60
22469;DHT22;11401;50.792;4.352;2023-09-19T04:27:29;21.00;62.00
22469;DHT22;11401;50.792;4.352;2023-09-19T04:29:56;21.00;61.90
22469;DHT22;11401;50.792;4.352;2023-09-19T04:32:29;21.00;61.30
22469;DHT22;11401;50.792;4.352;2023-09-19T04:34:56;21.00;61.50
22469;DHT22;11401;50.792;4.352;2023-09-19T04:37:26;21.00;62.10
22469;DHT22;11401;50.792;4.352;2023-09-19T04:39:53;21.10;62.50
22469;DHT22;11401;50.792;4.352;2023-09-19T04:42:21;21.10;61.70
22469;DHT22;11401;50.792;4.352;2023-09-19T04:44:48;21.10;61.90
22469;DHT22;11401;50.792;4.352;2023-09-19T04:47:16;21.10;61.90
22469;DHT22;11401;50.792;4.352;2023-09-19T04:49:43;21.10;61.30
22469;DHT22;11401;50.792;4.352;2023-09-19T04:52:10;21.00;61.70
22469;DHT22;11401;50.792;4.352;2023-09-19T04:54:37;21.00;61.60
22469;DHT22;11401;50.792;4.352;2023-09-19T04:57:05;21.00;61.20
22469;DHT22;11401;50.792;4.352;2023-09-19T04:59:32;21.00;60.00
22469;DHT22;11401;50.792;4.352;2023-09-19T05:01:59;21.00;60.00
22469;DHT22;11401;50.792;4.352;2023-09-19T05:04:26;21.00;60.30
22469;DHT22;11401;50.792;4.352;2023-09-19T05:06:54;20.90;59.70
22469;DHT22;11401;50.792;4.352;2023-09-19T05:09:21;21.00;60.10
22469;DHT22;11401;50.792;4.352;2023-09-19T05:11:48;21.00;59.80
22469;DHT22;11401;50.792;4.352;2023-09-19T05:14:15;20.90;59.90
22469;DHT22;11401;50.792;4.352;2023-09-19T05:16:43;21.00;61.50
22469;DHT22;11401;50.792;4.352;2023-09-19T05:19:10;21.00;61.50
22469;DHT22;11401;50.792;4.352;2023-09-19T05:21:38;20.90;60.80
22469;DHT22;11401;50.792;4.352;2023-09-19T05:24:06;21.00;61.70
22469;DHT22;11401;50.792;4.352;2023-09-19T05:26:36;21.10;62.20
22469;DHT22;11401;50.792;4.352;2023-09-19T05:29:03;21.00;62.30
22469;DHT22;11401;50.792;4.352;2023-09-19T05:31:31;21.10;62.10
22469;DHT22;11401;50.792;4.352;2023-09-19T05:33:59;21.10;62.20
22469;DHT22;11401;50.792;4.352;2023-09-19T05:36:27;21.10;62.30
22469;DHT22;11401;50.792;4.352;2023-09-19T05:38:56;21.10;62.20
22469;DHT22;11401;50.792;4.352;2023-09-19T05:41:23;21.10;61.60
22469;DHT22;11401;50.792;4.352;2023-09-19T05:43:50;21.10;62.10
22469;DHT22;11401;50.792;4.352;2023-09-19T05:46:17;21.20;61.60
22469;DHT22;11401;50.792;4.352;2023-09-19T05:48:45;21.00;59.70
22469;DHT22;11401;50.792;4.352;2023-09-19T05:51:16;20.90;60.60
22469;DHT22;11401;50.792;4.352;2023-09-19T05:53:44;21.00;63.60
22469;DHT22;11401;50.792;4.352;2023-09-19T05:56:15;21.40;65.30
22469;DHT22;11401;50.792;4.352;2023-09-19T05:58:42;21.60;65.20
22469;DHT22;11401;50.792;4.352;2023-09-19T06:01:11;21.60;62.00
22469;DHT22;11401;50.792;4.352;2023-09-19T06:03:38;21.60;62.00
22469;DHT22;11401;50.792;4.352;2023-09-19T06:06:05;21.70;62.90
22469;DHT22;11401;50.792;4.352;2023-09-19T06:08:33;21.90;63.90
22469;DHT22;11401;50.792;4.352;2023-09-19T06:11:00;22.00;63.80
22469;DHT22;11401;50.792;4.352;2023-09-19T06:13:30;22.00;62.00
22469;DHT22;11401;50.792;4.352;2023-09-19T06:16:00;22.10;62.70
22469;DHT22;11401;50.792;4.352;2023-09-19T06:18:32;22.10;62.70
22469;DHT22;11401;50.792;4.352;2023-09-19T06:21:03;22.10;61.90
22469;DHT22;11401;50.792;4.352;2023-09-19T06:23:34;21.80;59.60
22469;DHT22;11401;50.792;4.352;2023-09-19T06:26:02;21.70;60.70
22469;DHT22;11401;50.792;4.352;2023-09-19T06:28:33;21.70;61.00
22469;DHT22;11401;50.792;4.352;2023-09-19T06:31:02;21.60;60.90
22469;DHT22;11401;50.792;4.352;2023-09-19T06:33:29;21.50;61.00
22469;DHT22;11401;50.792;4.352;2023-09-19T06:35:58;21.50;61.10
22469;DHT22;11401;50.792;4.352;2023-09-19T15:36:13;23.00;59.50
22469;DHT22;11401;50.792;4.352;2023-09-19T15:39:03;23.00;59.80
22469;DHT22;11401;50.792;4.352;2023-09-19T15:41:41;23.00;59.40
22469;DHT22;11401;50.792;4.352;2023-09-19T15:44:13;23.10;59.50
22469;DHT22;11401;50.792;4.352;2023-09-19T15:46:40;23.10;59.30
22469;DHT22;11401;50.792;4.352;2023-09-19T15:49:08;23.10;59.40
22469;DHT22;11401;50.792;4.352;2023-09-19T15:51:36;23.00;59.30
22469;DHT22;11401;50.792;4.352;2023-09-19T15:54:12;23.10;59.50
22469;DHT22;11401;50.792;4.352;2023-09-19T15:56:45;23.10;59.10
22469;DHT22;11401;50.792;4.352;2023-09-19T15:59:13;23.10;59.30
22469;DHT22;11401;50.792;4.352;2023-09-19T16:01:41;23.20;59.00
22469;DHT22;11401;50.792;4.352;2023-09-19T16:04:11;23.10;58.50
22469;DHT22;11401;50.792;4.352;2023-09-19T16:06:40;23.10;58.40
22469;DHT22;11401;50.792;4.352;2023-09-19T16:09:08;23.20;58.90
22469;DHT22;11401;50.792;4.352;2023-09-19T16:11:37;23.20;58.30
22469;DHT22;11401;50.792;4.352;2023-09-19T16:14:05;23.20;58.60
22469;DHT22;11401;50.792;4.352;2023-09-19T16:16:37;23.20;58.00
22469;DHT22;11401;50.792;4.352;2023-09-19T16:19:05;23.20;58.70
22469;DHT22;11401;50.792;4.352;2023-09-19T16:21:37;23.20;58.60
22469;DHT22;11401;50.792;4.352;2023-09-19T16:24:07;23.20;58.40
22469;DHT22;11401;50.792;4.352;2023-09-19T16:26:37;23.20;59.10
22469;DHT22;11401;50.792;4.352;2023-09-19T16:29:04;23.20;59.00
22469;DHT22;11401;50.792;4.352;2023-09-19T16:31:33;23.20;59.20
22469;DHT22;11401;50.792;4.352;2023-09-19T16:34:02;23.20;59.10
22469;DHT22;11401;50.792;4.352;2023-09-19T16:36:29;23.20;59.60
22469;DHT22;11401;50.792;4.352;2023-09-19T16:38:58;23.20;58.80
22469;DHT22;11401;50.792;4.352;2023-09-19T16:41:27;23.20;59.00
22469;DHT22;11401;50.792;4.352;2023-09-19T16:43:54;23.20;57.80
22469;DHT22;11401;50.792;4.352;2023-09-19T16:46:21;23.20;58.70
22469;DHT22;11401;50.792;4.352;2023-09-19T16:48:48;23.10;58.70
22469;DHT22;11401;50.792;4.352;2023-09-19T16:51:21;23.10;58.00
22469;DHT22;11401;50.792;4.352;2023-09-19T16:53:48;23.10;58.50
22469;DHT22;11401;50.792;4.352;2023-09-19T16:56:20;23.10;58.60
22469;DHT22;11401;50.792;4.352;2023-09-19T16:58:48;23.20;58.80
22469;DHT22;11401;50.792;4.352;2023-09-19T17:01:20;23.10;58.30
22469;DHT22;11401;50.792;4.352;2023-09-19T17:03:52;23.10;59.00
22469;DHT22;11401;50.792;4.352;2023-09-19T17:06:19;23.10;59.40
22469;DHT22;11401;50.792;4.352;2023-09-19T17:08:50;23.10;58.80
22469;DHT22;11401;50.792;4.352;2023-09-19T17:11:18;23.10;58.60
22469;DHT22;11401;50.792;4.352;2023-09-19T17:13:50;23.00;58.70
22469;DHT22;11401;50.792;4.352;2023-09-19T17:16:18;23.00;58.60
22469;DHT22;11401;50.792;4.352;2023-09-19T17:18:53;23.00;59.50
22469;DHT22;11401;50.792;4.352;2023-09-19T17:21:22;23.10;61.60
22469;DHT22;11401;50.792;4.352;2023-09-19T17:23:49;23.20;63.30
22469;DHT22;11401;50.792;4.352;2023-09-19T17:26:17;23.10;61.20
22469;DHT22;11401;50.792;4.352;2023-09-19T17:28:46;23.10;60.20
22469;DHT22;11401;50.792;4.352;2023-09-19T17:31:21;23.10;60.10
22469;DHT22;11401;50.792;4.352;2023-09-19T17:33:50;23.10;59.80
22469;DHT22;11401;50.792;4.352;2023-09-19T17:36:23;23.10;60.40
22469;DHT22;11401;50.792;4.352;2023-09-19T17:38:54;23.10;60.00
22469;DHT22;11401;50.792;4.352;2023-09-19T17:41:22;23.10;60.00
22469;DHT22;11401;50.792;4.352;2023-09-19T17:43:57;23.10;59.90
22469;DHT22;11401;50.792;4.352;2023-09-19T17:46:25;23.10;59.50
22469;DHT22;11401;50.792;4.352;2023-09-19T17:48:57;23.10;59.70
22469;DHT22;11401;50.792;4.352;2023-09-19T17:51:25;23.10;59.00
22469;DHT22;11401;50.792;4.352;2023-09-19T17:53:53;23.00;59.50
22469;DHT22;11401;50.792;4.352;2023-09-19T17:56:24;23.00;59.10
22469;DHT22;11401;50.792;4.352;2023-09-19T17:58:51;22.90;58.90
22469;DHT22;11401;50.792;4.352;2023-09-19T18:01:23;23.00;59.40
22469;DHT22;11401;50.792;4.352;2023-09-19T18:03:54;23.00;59.60
22469;DHT22;11401;50.792;4.352;2023-09-19T18:06:26;23.00;59.80
22469;DHT22;11401;50.792;4.352;2023-09-19T18:08:54;23.00;59.90
22469;DHT22;11401;50.792;4.352;2023-09-19T18:11:25;22.90;59.60
22469;DHT22;11401;50.792;4.352;2023-09-19T18:13:55;22.90;59.70
22469;DHT22;11401;50.792;4.352;2023-09-19T18:16:23;22.90;59.60
22469;DHT22;11401;50.792;4.352;2023-09-19T18:18:55;22.90;58.90
22469;DHT22;11401;50.792;4.352;2023-09-19T18:21:23;22.90;59.40
22469;DHT22;11401;50.792;4.352;2023-09-19T18:23:58;22.90;59.30
22469;DHT22;11401;50.792;4.352;2023-09-19T18:26:31;22.90;58.60
22469;DHT22;11401;50.792;4.352;2023-09-19T18:28:59;22.80;58.90
22469;DHT22;11401;50.792;4.352;2023-09-19T18:31:27;22.80;58.80
22469;DHT22;11401;50.792;4.352;2023-09-19T18:33:55;22.80;59.00
22469;DHT22;11401;50.792;4.352;2023-09-19T18:36:23;22.80;59.10
22469;DHT22;11401;50.792;4.352;2023-09-19T18:38:50;22.90;59.20
22469;DHT22;11401;50.792;4.352;2023-09-19T18:41:18;22.80;58.80
22469;DHT22;11401;50.792;4.352;2023-09-19T18:43:46;22.90;59.30
22469;DHT22;11401;50.792;4.352;2023-09-19T18:46:13;22.80;58.90
22469;DHT22;11401;50.792;4.352;2023-09-19T18:48:43;22.90;59.00
22469;DHT22;11401;50.792;4.352;2023-09-19T18:51:15;22.90;59.70
22469;DHT22;11401;50.792;4.352;2023-09-19T18:53:44;22.90;59.10
22469;DHT22;11401;50.792;4.352;2023-09-19T18:56:27;22.90;58.80
22469;DHT22;11401;50.792;4.352;2023-09-19T18:58:54;22.80;58.20
22469;DHT22;11401;50.792;4.352;2023-09-19T19:01:21;22.80;58.40
22469;DHT22;11401;50.792;4.352;2023-09-19T19:03:52;22.80;58.30
22469;DHT22;11401;50.792;4.352;2023-09-19T19:06:19;22.90;58.30
22469;DHT22;11401;50.792;4.352;2023-09-19T19:08:48;22.90;58.40
22469;DHT22;11401;50.792;4.352;2023-09-19T19:11:18;22.80;58.30
22469;DHT22;11401;50.792;4.352;2023-09-19T19:13:51;22.90;58.40
22469;DHT22;11401;50.792;4.352;2023-09-19T19:16:18;22.90;58.70
22469;DHT22;11401;50.792;4.352;2023-09-19T19:18:47;22.90;58.70
22469;DHT22;11401;50.792;4.352;2023-09-19T19:21:15;22.90;58.70
22469;DHT22;11401;50.792;4.352;2023-09-19T19:23:43;22.90;58.90
22469;DHT22;11401;50.792;4.352;2023-09-19T19:26:10;22.90;58.60
22469;DHT22;11401;50.792;4.352;2023-09-19T19:28:39;22.90;58.40
22469;DHT22;11401;50.792;4.352;2023-09-19T19:31:08;22.90;58.30
22469;DHT22;11401;50.792;4.352;2023-09-19T19:33:37;22.90;58.40
22469;DHT22;11401;50.792;4.352;2023-09-19T19:36:10;22.90;58.70
22469;DHT22;11401;50.792;4.352;2023-09-19T19:38:38;22.90;58.70
22469;DHT22;11401;50.792;4.352;2023-09-19T19:41:07;22.90;58.50
22469;DHT22;11401;50.792;4.352;2023-09-19T19:43:34;22.80;58.40
22469;DHT22;11401;50.792;4.352;2023-09-19T19:46:04;22.90;58.60
22469;DHT22;11401;50.792;4.352;2023-09-19T19:48:33;22.90;58.30
22469;DHT22;11401;50.792;4.352;2023-09-19T19:51:06;22.90;58.50
22469;DHT22;11401;50.792;4.352;2023-09-19T19:53:40;22.90;58.40
22469;DHT22;11401;50.792;4.352;2023-09-19T19:56:07;22.90;58.20
22469;DHT22;11401;50.792;4.352;2023-09-19T19:58:35;22.90;58.30
22469;DHT22;11401;50.792;4.352;2023-09-19T20:01:03;22.90;58.60
22469;DHT22;11401;50.792;4.352;2023-09-19T20:03:34;22.90;58.70
22469;DHT22;11401;50.792;4.352;2023-09-19T20:06:02;22.90;58.40
22469;DHT22;11401;50.792;4.352;2023-09-19T20:08:30;22.90;58.70
22469;DHT22;11401;50.792;4.352;2023-09-19T20:11:05;22.90;58.30
22469;DHT22;11401;50.792;4.352;2023-09-19T20:13:34;22.90;58.50
22469;DHT22;11401;50.792;4.352;2023-09-19T20:16:02;22.90;58.80
22469;DHT22;11401;50.792;4.352;2023-09-19T20:18:32;22.90;58.80
22469;DHT22;11401;50.792;4.352;2023-09-19T20:21:04;22.90;58.70
22469;DHT22;11401;50.792;4.352;2023-09-19T20:23:40;22.90;58.50
22469;DHT22;11401;50.792;4.352;2023-09-19T20:26:09;22.90;58.50
22469;DHT22;11401;50.792;4.352;2023-09-19T20:28:37;22.90;58.80
22469;DHT22;11401;50.792;4.352;2023-09-19T20:31:09;22.90;58.90
22469;DHT22;11401;50.792;4.352;2023-09-19T20:33:38;22.90;59.00
22469;DHT22;11401;50.792;4.352;2023-09-19T20:36:06;22.90;58.70
22469;DHT22;11401;50.792;4.352;2023-09-19T20:38:34;22.90;58.90
22469;DHT22;11401;50.792;4.352;2023-09-19T20:41:09;22.90;59.00
22469;DHT22;11401;50.792;4.352;2023-09-19T20:43:37;22.90;58.90
22469;DHT22;11401;50.792;4.352;2023-09-19T20:46:08;22.90;58.90
22469;DHT22;11401;50.792;4.352;2023-09-19T20:48:35;22.90;58.90
22469;DHT22;11401;50.792;4.352;2023-09-19T20:51:10;22.90;59.10
22469;DHT22;11401;50.792;4.352;2023-09-19T20:53:42;23.00;59.10
22469;DHT22;11401;50.792;4.352;2023-09-19T20:56:09;22.90;58.80
22469;DHT22;11401;50.792;4.352;2023-09-19T20:58:39;22.90;58.60
22469;DHT22;11401;50.792;4.352;2023-09-19T21:01:08;22.90;58.90
22469;DHT22;11401;50.792;4.352;2023-09-19T21:03:37;23.00;59.20
22469;DHT22;11401;50.792;4.352;2023-09-19T21:06:08;22.90;58.90
22469;DHT22;11401;50.792;4.352;2023-09-19T21:08:37;23.00;59.10
22469;DHT22;11401;50.792;4.352;2023-09-19T21:11:13;22.90;59.10
22469;DHT22;11401;50.792;4.352;2023-09-19T21:13:43;23.00;58.90
22469;DHT22;11401;50.792;4.352;2023-09-19T21:16:11;22.90;59.10
22469;DHT22;11401;50.792;4.352;2023-09-19T21:18:38;23.00;59.20
22469;DHT22;11401;50.792;4.352;2023-09-19T21:21:07;22.90;59.10
22469;DHT22;11401;50.792;4.352;2023-09-19T21:23:41;22.90;59.10
22469;DHT22;11401;50.792;4.352;2023-09-19T21:26:08;22.90;58.90
22469;DHT22;11401;50.792;4.352;2023-09-19T21:28:38;22.90;59.10
22469;DHT22;11401;50.792;4.352;2023-09-19T21:31:09;22.90;59.10
22469;DHT22;11401;50.792;4.352;2023-09-19T21:33:39;22.90;59.10
22469;DHT22;11401;50.792;4.352;2023-09-19T21:36:09;22.90;59.20
